sensor_id;sensor_type;location;lat;lon;timestamp;temperature;humidity
33761;DHT22;20084;47.912;19.044;2023-03-26T00:00:46;10.40;99.90
33761;DHT22;20084;47.912;19.044;2023-03-26T00:03:16;10.30;99.90
33761;DHT22;20084;47.912;19.044;2023-03-26T00:05:43;10.20;99.90
33761;DHT22;20084;47.912;19.044;2023-03-26T00:08:13;10.20;99.90
33761;DHT22;20084;47.912;19.044;2023-03-26T00:10:40;10.30;99.90
33761;DHT22;20084;47.912;19.044;2023-03-26T00:13:08;10.30;99.90
33761;DHT22;20084;47.912;19.044;2023-03-26T00:15:35;10.30;99.90
33761;DHT22;20084;47.912;19.044;2023-03-26T00:18:01;10.30;99.90
33761;DHT22;20084;47.912;19.044;2023-03-26T00:20:29;10.30;99.90
33761;DHT22;20084;47.912;19.044;2023-03-26T00:22:57;10.30;99.90
33761;DHT22;20084;47.912;19.044;2023-03-26T00:25:26;10.40;99.90
33761;DHT22;20084;47.912;19.044;2023-03-26T00:27:52;10.30;99.80
33761;DHT22;20084;47.912;19.044;2023-03-26T00:30:18;10.30;99.90
33761;DHT22;20084;47.912;19.044;2023-03-26T00:32:45;10.20;99.90
33761;DHT22;20084;47.912;19.044;2023-03-26T00:35:11;10.10;99.90
33761;DHT22;20084;47.912;19.044;2023-03-26T00:37:38;10.20;99.90
33761;DHT22;20084;47.912;19.044;2023-03-26T00:40:08;10.20;99.90
33761;DHT22;20084;47.912;19.044;2023-03-26T00:42:35;10.20;99.90
33761;DHT22;20084;47.912;19.044;2023-03-26T00:45:05;10.10;99.90
33761;DHT22;20084;47.912;19.044;2023-03-26T00:47:32;10.00;99.90
33761;DHT22;20084;47.912;19.044;2023-03-26T00:49:58;10.10;99.90
33761;DHT22;20084;47.912;19.044;2023-03-26T00:52:23;10.20;99.90
33761;DHT22;20084;47.912;19.044;2023-03-26T00:54:53;10.20;99.90
33761;DHT22;20084;47.912;19.044;2023-03-26T00:57:20;10.20;99.90
33761;DHT22;20084;47.912;19.044;2023-03-26T00:59:49;10.20;99.90
33761;DHT22;20084;47.912;19.044;2023-03-26T01:02:17;10.20;99.90
33761;DHT22;20084;47.912;19.044;2023-03-26T01:04:55;10.10;99.90
33761;DHT22;20084;47.912;19.044;2023-03-26T01:07:24;10.10;99.90
33761;DHT22;20084;47.912;19.044;2023-03-26T01:09:55;10.10;99.90
33761;DHT22;20084;47.912;19.044;2023-03-26T01:12:24;10.00;99.90
33761;DHT22;20084;47.912;19.044;2023-03-26T01:14:53;10.10;99.90
33761;DHT22;20084;47.912;19.044;2023-03-26T01:17:20;10.10;99.90
33761;DHT22;20084;47.912;19.044;2023-03-26T01:22:25;10.10;99.90
33761;DHT22;20084;47.912;19.044;2023-03-26T01:24:51;10.00;99.90
33761;DHT22;20084;47.912;19.044;2023-03-26T01:27:33;10.10;99.90
33761;DHT22;20084;47.912;19.044;2023-03-26T01:33:00;10.20;99.90
33761;DHT22;20084;47.912;19.044;2023-03-26T01:35:37;10.30;99.90
33761;DHT22;20084;47.912;19.044;2023-03-26T01:43:35;10.30;99.70
33761;DHT22;20084;47.912;19.044;2023-03-26T01:46:05;10.40;99.70
33761;DHT22;20084;47.912;19.044;2023-03-26T01:48:41;10.40;99.80
33761;DHT22;20084;47.912;19.044;2023-03-26T01:51:09;10.30;99.70
33761;DHT22;20084;47.912;19.044;2023-03-26T01:53:41;10.30;99.90
33761;DHT22;20084;47.912;19.044;2023-03-26T01:59:07;10.40;99.90
33761;DHT22;20084;47.912;19.044;2023-03-26T02:01:49;10.50;99.60
33761;DHT22;20084;47.912;19.044;2023-03-26T02:07:25;10.60;99.40
33761;DHT22;20084;47.912;19.044;2023-03-26T02:10:07;10.60;99.60
33761;DHT22;20084;47.912;19.044;2023-03-26T02:12:36;10.50;99.60
33761;DHT22;20084;47.912;19.044;2023-03-26T02:15:02;10.50;99.60
33761;DHT22;20084;47.912;19.044;2023-03-26T02:17:28;10.50;99.90
33761;DHT22;20084;47.912;19.044;2023-03-26T02:19:56;10.50;99.80
33761;DHT22;20084;47.912;19.044;2023-03-26T02:22:22;10.50;99.80
33761;DHT22;20084;47.912;19.044;2023-03-26T02:24:54;10.40;99.50
33761;DHT22;20084;47.912;19.044;2023-03-26T02:27:20;10.40;99.60
33761;DHT22;20084;47.912;19.044;2023-03-26T02:29:46;10.30;99.90
33761;DHT22;20084;47.912;19.044;2023-03-26T02:32:12;10.30;99.90
33761;DHT22;20084;47.912;19.044;2023-03-26T02:34:41;10.20;99.90
33761;DHT22;20084;47.912;19.044;2023-03-26T02:37:07;10.20;99.90
33761;DHT22;20084;47.912;19.044;2023-03-26T02:39:33;10.20;99.90
33761;DHT22;20084;47.912;19.044;2023-03-26T02:41:59;10.10;99.90
33761;DHT22;20084;47.912;19.044;2023-03-26T02:44:25;10.10;99.90
33761;DHT22;20084;47.912;19.044;2023-03-26T02:46:51;10.20;99.90
33761;DHT22;20084;47.912;19.044;2023-03-26T02:49:17;10.30;99.90
33761;DHT22;20084;47.912;19.044;2023-03-26T02:51:43;10.30;99.90
33761;DHT22;20084;47.912;19.044;2023-03-26T02:54:08;10.40;99.90
33761;DHT22;20084;47.912;19.044;2023-03-26T02:56:34;10.30;99.90
33761;DHT22;20084;47.912;19.044;2023-03-26T02:59:00;10.30;99.90
33761;DHT22;20084;47.912;19.044;2023-03-26T03:01:26;10.20;99.90
33761;DHT22;20084;47.912;19.044;2023-03-26T03:03:55;10.10;99.90
33761;DHT22;20084;47.912;19.044;2023-03-26T03:06:21;10.10;99.90
33761;DHT22;20084;47.912;19.044;2023-03-26T03:08:46;10.10;99.90
33761;DHT22;20084;47.912;19.044;2023-03-26T03:11:14;10.00;99.90
33761;DHT22;20084;47.912;19.044;2023-03-26T03:13:41;10.10;99.90
33761;DHT22;20084;47.912;19.044;2023-03-26T03:16:07;10.00;99.90
33761;DHT22;20084;47.912;19.044;2023-03-26T03:18:33;10.00;99.90
33761;DHT22;20084;47.912;19.044;2023-03-26T03:20:58;10.00;99.90
33761;DHT22;20084;47.912;19.044;2023-03-26T03:23:25;10.00;99.90
33761;DHT22;20084;47.912;19.044;2023-03-26T03:25:50;10.00;99.90
33761;DHT22;20084;47.912;19.044;2023-03-26T03:28:17;9.90;99.90
33761;DHT22;20084;47.912;19.044;2023-03-26T03:30:43;9.90;99.90
33761;DHT22;20084;47.912;19.044;2023-03-26T03:33:10;9.90;99.90
33761;DHT22;20084;47.912;19.044;2023-03-26T03:35:37;9.80;99.90
33761;DHT22;20084;47.912;19.044;2023-03-26T03:38:04;9.80;99.90
33761;DHT22;20084;47.912;19.044;2023-03-26T03:40:30;9.80;99.90
33761;DHT22;20084;47.912;19.044;2023-03-26T03:42:56;9.80;99.90
33761;DHT22;20084;47.912;19.044;2023-03-26T03:45:21;9.90;99.90
33761;DHT22;20084;47.912;19.044;2023-03-26T03:47:47;9.90;99.90
33761;DHT22;20084;47.912;19.044;2023-03-26T03:50:13;9.80;99.90
33761;DHT22;20084;47.912;19.044;2023-03-26T03:52:38;9.70;99.90
33761;DHT22;20084;47.912;19.044;2023-03-26T03:55:04;9.70;99.90
33761;DHT22;20084;47.912;19.044;2023-03-26T03:57:30;9.60;99.90
33761;DHT22;20084;47.912;19.044;2023-03-26T03:59:57;9.60;99.90
33761;DHT22;20084;47.912;19.044;2023-03-26T04:02:24;9.60;99.90
33761;DHT22;20084;47.912;19.044;2023-03-26T04:04:59;9.60;99.90
33761;DHT22;20084;47.912;19.044;2023-03-26T04:07:26;9.70;99.90
33761;DHT22;20084;47.912;19.044;2023-03-26T04:09:52;9.60;99.90
33761;DHT22;20084;47.912;19.044;2023-03-26T04:12:18;9.70;99.90
33761;DHT22;20084;47.912;19.044;2023-03-26T04:14:43;9.70;99.90
33761;DHT22;20084;47.912;19.044;2023-03-26T04:17:09;9.80;99.90
33761;DHT22;20084;47.912;19.044;2023-03-26T04:19:38;9.70;99.90
33761;DHT22;20084;47.912;19.044;2023-03-26T04:22:04;9.80;99.90
33761;DHT22;20084;47.912;19.044;2023-03-26T04:24:31;9.80;99.90
33761;DHT22;20084;47.912;19.044;2023-03-26T04:27:03;9.70;99.90
33761;DHT22;20084;47.912;19.044;2023-03-26T04:29:36;9.70;99.90
33761;DHT22;20084;47.912;19.044;2023-03-26T04:32:11;9.70;99.90
33761;DHT22;20084;47.912;19.044;2023-03-26T04:34:40;9.70;99.90
33761;DHT22;20084;47.912;19.044;2023-03-26T04:37:24;9.60;99.90
33761;DHT22;20084;47.912;19.044;2023-03-26T04:39:52;9.60;99.90
33761;DHT22;20084;47.912;19.044;2023-03-26T04:42:18;9.70;99.90
33761;DHT22;20084;47.912;19.044;2023-03-26T04:44:48;9.80;99.90
33761;DHT22;20084;47.912;19.044;2023-03-26T04:47:16;9.80;99.90
33761;DHT22;20084;47.912;19.044;2023-03-26T04:49:43;9.80;99.90
33761;DHT22;20084;47.912;19.044;2023-03-26T04:52:12;9.80;99.90
33761;DHT22;20084;47.912;19.044;2023-03-26T04:54:38;9.90;99.90
33761;DHT22;20084;47.912;19.044;2023-03-26T04:57:13;10.00;99.90
33761;DHT22;20084;47.912;19.044;2023-03-26T04:59:40;10.00;99.90
33761;DHT22;20084;47.912;19.044;2023-03-26T05:02:09;10.00;99.90
33761;DHT22;20084;47.912;19.044;2023-03-26T05:04:36;10.00;99.90
33761;DHT22;20084;47.912;19.044;2023-03-26T05:07:04;10.00;99.90
33761;DHT22;20084;47.912;19.044;2023-03-26T05:09:30;10.00;99.90
33761;DHT22;20084;47.912;19.044;2023-03-26T05:11:56;10.10;99.90
33761;DHT22;20084;47.912;19.044;2023-03-26T05:14:23;10.10;99.90
33761;DHT22;20084;47.912;19.044;2023-03-26T05:16:48;10.10;99.90
33761;DHT22;20084;47.912;19.044;2023-03-26T05:19:17;10.20;99.90
33761;DHT22;20084;47.912;19.044;2023-03-26T05:21:43;10.30;99.90
33761;DHT22;20084;47.912;19.044;2023-03-26T05:24:09;10.30;99.90
33761;DHT22;20084;47.912;19.044;2023-03-26T05:26:35;10.40;99.90
33761;DHT22;20084;47.912;19.044;2023-03-26T05:29:01;10.50;99.90
33761;DHT22;20084;47.912;19.044;2023-03-26T05:31:27;10.60;99.90
33761;DHT22;20084;47.912;19.044;2023-03-26T05:33:55;10.80;99.90
33761;DHT22;20084;47.912;19.044;2023-03-26T05:36:22;10.80;99.90
33761;DHT22;20084;47.912;19.044;2023-03-26T05:38:48;10.90;99.90
33761;DHT22;20084;47.912;19.044;2023-03-26T05:41:15;10.80;99.90
33761;DHT22;20084;47.912;19.044;2023-03-26T05:43:41;10.90;99.90
33761;DHT22;20084;47.912;19.044;2023-03-26T05:46:07;10.80;99.90
33761;DHT22;20084;47.912;19.044;2023-03-26T05:48:33;10.80;99.90
33761;DHT22;20084;47.912;19.044;2023-03-26T05:50:59;10.90;99.90
33761;DHT22;20084;47.912;19.044;2023-03-26T05:53:26;10.90;99.90
33761;DHT22;20084;47.912;19.044;2023-03-26T05:55:52;11.10;99.90
33761;DHT22;20084;47.912;19.044;2023-03-26T05:58:26;11.10;99.90
33761;DHT22;20084;47.912;19.044;2023-03-26T06:01:11;11.00;99.90
33761;DHT22;20084;47.912;19.044;2023-03-26T06:03:42;10.90;99.90
33761;DHT22;20084;47.912;19.044;2023-03-26T06:06:14;10.80;99.90
33761;DHT22;20084;47.912;19.044;2023-03-26T06:08:49;10.70;99.90
33761;DHT22;20084;47.912;19.044;2023-03-26T06:11:16;10.70;99.90
33761;DHT22;20084;47.912;19.044;2023-03-26T06:13:42;10.80;99.90
33761;DHT22;20084;47.912;19.044;2023-03-26T06:16:09;11.00;99.90
33761;DHT22;20084;47.912;19.044;2023-03-26T06:18:35;11.10;99.90
33761;DHT22;20084;47.912;19.044;2023-03-26T06:21:02;11.30;99.90
33761;DHT22;20084;47.912;19.044;2023-03-26T06:23:28;11.40;99.90
33761;DHT22;20084;47.912;19.044;2023-03-26T06:25:54;11.50;99.90
33761;DHT22;20084;47.912;19.044;2023-03-26T06:28:19;11.50;99.90
33761;DHT22;20084;47.912;19.044;2023-03-26T06:30:45;11.70;99.90
33761;DHT22;20084;47.912;19.044;2023-03-26T06:33:11;11.70;99.90
33761;DHT22;20084;47.912;19.044;2023-03-26T06:35:36;11.70;99.20
33761;DHT22;20084;47.912;19.044;2023-03-26T06:38:03;11.70;99.80
33761;DHT22;20084;47.912;19.044;2023-03-26T06:40:28;11.70;99.10
33761;DHT22;20084;47.912;19.044;2023-03-26T06:42:54;11.60;99.70
33761;DHT22;20084;47.912;19.044;2023-03-26T06:45:21;11.50;99.90
33761;DHT22;20084;47.912;19.044;2023-03-26T06:47:47;11.40;99.80
33761;DHT22;20084;47.912;19.044;2023-03-26T06:50:13;11.30;99.90
33761;DHT22;20084;47.912;19.044;2023-03-26T06:52:38;11.40;99.90
33761;DHT22;20084;47.912;19.044;2023-03-26T06:55:05;11.40;99.50
33761;DHT22;20084;47.912;19.044;2023-03-26T06:57:33;11.50;99.90
33761;DHT22;20084;47.912;19.044;2023-03-26T06:59:59;11.60;99.60
33761;DHT22;20084;47.912;19.044;2023-03-26T07:02:24;11.60;99.80
33761;DHT22;20084;47.912;19.044;2023-03-26T07:04:50;11.80;98.90
33761;DHT22;20084;47.912;19.044;2023-03-26T07:07:17;11.80;98.90
33761;DHT22;20084;47.912;19.044;2023-03-26T07:09:46;11.80;99.00
33761;DHT22;20084;47.912;19.044;2023-03-26T07:12:13;11.70;98.70
33761;DHT22;20084;47.912;19.044;2023-03-26T07:14:38;11.80;99.10
33761;DHT22;20084;47.912;19.044;2023-03-26T07:17:04;12.00;99.20
33761;DHT22;20084;47.912;19.044;2023-03-26T07:19:30;12.10;98.80
33761;DHT22;20084;47.912;19.044;2023-03-26T07:21:56;12.10;98.90
33761;DHT22;20084;47.912;19.044;2023-03-26T07:24:22;12.00;98.70
33761;DHT22;20084;47.912;19.044;2023-03-26T07:27:53;11.90;98.50
33761;DHT22;20084;47.912;19.044;2023-03-26T07:35:40;11.70;99.60
33761;DHT22;20084;47.912;19.044;2023-03-26T07:38:40;11.70;99.60
33761;DHT22;20084;47.912;19.044;2023-03-26T07:46:26;11.70;99.60
33761;DHT22;20084;47.912;19.044;2023-03-26T07:48:53;11.60;99.70
33761;DHT22;20084;47.912;19.044;2023-03-26T07:51:22;11.70;99.70
33761;DHT22;20084;47.912;19.044;2023-03-26T07:53:48;11.60;99.30
33761;DHT22;20084;47.912;19.044;2023-03-26T07:56:29;11.60;99.80
33761;DHT22;20084;47.912;19.044;2023-03-26T08:04:38;11.80;98.60
33761;DHT22;20084;47.912;19.044;2023-03-26T08:10:05;11.90;98.40
33761;DHT22;20084;47.912;19.044;2023-03-26T08:15:27;12.00;98.20
33761;DHT22;20084;47.912;19.044;2023-03-26T08:18:41;12.00;97.80
33761;DHT22;20084;47.912;19.044;2023-03-26T08:31:38;12.20;97.50
33761;DHT22;20084;47.912;19.044;2023-03-26T08:34:05;12.20;97.00
33761;DHT22;20084;47.912;19.044;2023-03-26T08:36:30;12.20;97.30
33761;DHT22;20084;47.912;19.044;2023-03-26T08:38:56;12.20;97.20
33761;DHT22;20084;47.912;19.044;2023-03-26T08:41:51;12.20;97.30
33761;DHT22;20084;47.912;19.044;2023-03-26T08:58:47;12.20;97.60
33761;DHT22;20084;47.912;19.044;2023-03-26T09:04:39;12.40;97.90
33761;DHT22;20084;47.912;19.044;2023-03-26T09:22:16;12.80;96.40
33761;DHT22;20084;47.912;19.044;2023-03-26T09:39:21;13.50;94.00
33761;DHT22;20084;47.912;19.044;2023-03-26T09:45:12;13.10;95.20
33761;DHT22;20084;47.912;19.044;2023-03-26T09:50:19;13.20;96.40
33761;DHT22;20084;47.912;19.044;2023-03-26T09:59:05;13.10;93.20
33761;DHT22;20084;47.912;19.044;2023-03-26T10:12:54;13.10;93.10
33761;DHT22;20084;47.912;19.044;2023-03-26T10:15:50;13.20;93.70
33761;DHT22;20084;47.912;19.044;2023-03-26T10:18:51;13.20;94.30
33761;DHT22;20084;47.912;19.044;2023-03-26T10:26:45;13.80;93.70
33761;DHT22;20084;47.912;19.044;2023-03-26T10:32:10;14.40;92.30
33761;DHT22;20084;47.912;19.044;2023-03-26T10:35:06;14.50;92.80
33761;DHT22;20084;47.912;19.044;2023-03-26T10:54:14;14.50;87.20
33761;DHT22;20084;47.912;19.044;2023-03-26T10:56:48;14.20;88.10
33761;DHT22;20084;47.912;19.044;2023-03-26T10:59:16;14.20;90.60
33761;DHT22;20084;47.912;19.044;2023-03-26T11:02:00;14.30;90.40
33761;DHT22;20084;47.912;19.044;2023-03-26T11:12:49;15.10;89.60
33761;DHT22;20084;47.912;19.044;2023-03-26T11:16:42;15.30;85.40
33761;DHT22;20084;47.912;19.044;2023-03-26T11:21:10;15.20;88.90
33761;DHT22;20084;47.912;19.044;2023-03-26T11:26:53;15.40;85.90
33761;DHT22;20084;47.912;19.044;2023-03-26T11:32:11;15.40;88.50
33761;DHT22;20084;47.912;19.044;2023-03-26T11:37:32;15.60;81.20
33761;DHT22;20084;47.912;19.044;2023-03-26T11:40:01;15.50;80.30
33761;DHT22;20084;47.912;19.044;2023-03-26T11:42:31;15.40;82.20
33761;DHT22;20084;47.912;19.044;2023-03-26T11:45:02;15.50;83.20
33761;DHT22;20084;47.912;19.044;2023-03-26T11:47:37;15.50;83.50
33761;DHT22;20084;47.912;19.044;2023-03-26T11:50:05;15.80;80.30
33761;DHT22;20084;47.912;19.044;2023-03-26T11:52:32;15.90;75.80
33761;DHT22;20084;47.912;19.044;2023-03-26T11:54:58;15.90;75.70
33761;DHT22;20084;47.912;19.044;2023-03-26T11:57:32;15.90;76.70
33761;DHT22;20084;47.912;19.044;2023-03-26T12:00:19;15.90;75.90
33761;DHT22;20084;47.912;19.044;2023-03-26T12:02:46;16.10;76.60
33761;DHT22;20084;47.912;19.044;2023-03-26T12:05:22;16.30;76.20
33761;DHT22;20084;47.912;19.044;2023-03-26T12:07:58;16.30;74.10
33761;DHT22;20084;47.912;19.044;2023-03-26T12:12:56;15.90;77.00
33761;DHT22;20084;47.912;19.044;2023-03-26T12:15:23;15.70;75.90
33761;DHT22;20084;47.912;19.044;2023-03-26T12:17:53;15.80;78.90
33761;DHT22;20084;47.912;19.044;2023-03-26T12:25:21;16.20;75.40
33761;DHT22;20084;47.912;19.044;2023-03-26T12:28:01;16.20;74.60
33761;DHT22;20084;47.912;19.044;2023-03-26T12:30:32;16.10;74.90
33761;DHT22;20084;47.912;19.044;2023-03-26T12:33:21;16.20;75.50
33761;DHT22;20084;47.912;19.044;2023-03-26T12:35:51;16.20;75.90
33761;DHT22;20084;47.912;19.044;2023-03-26T12:38:31;16.40;74.50
33761;DHT22;20084;47.912;19.044;2023-03-26T12:43:49;16.50;73.30
33761;DHT22;20084;47.912;19.044;2023-03-26T12:46:33;16.60;74.20
33761;DHT22;20084;47.912;19.044;2023-03-26T12:49:02;16.70;76.10
33761;DHT22;20084;47.912;19.044;2023-03-26T12:51:48;16.70;70.60
33761;DHT22;20084;47.912;19.044;2023-03-26T12:54:28;16.60;71.90
33761;DHT22;20084;47.912;19.044;2023-03-26T12:57:20;16.40;70.30
33761;DHT22;20084;47.912;19.044;2023-03-26T13:02:30;16.40;73.70
33761;DHT22;20084;47.912;19.044;2023-03-26T13:18:49;16.30;70.30
33761;DHT22;20084;47.912;19.044;2023-03-26T13:30:01;16.80;69.30
33761;DHT22;20084;47.912;19.044;2023-03-26T13:43:27;16.20;68.70
33761;DHT22;20084;47.912;19.044;2023-03-26T13:51:28;16.40;70.30
33761;DHT22;20084;47.912;19.044;2023-03-26T13:54:13;16.50;66.50
33761;DHT22;20084;47.912;19.044;2023-03-26T13:56:53;16.50;66.30
33761;DHT22;20084;47.912;19.044;2023-03-26T13:59:21;16.50;66.90
33761;DHT22;20084;47.912;19.044;2023-03-26T14:01:56;16.50;66.90
33761;DHT22;20084;47.912;19.044;2023-03-26T14:04:44;16.50;67.80
33761;DHT22;20084;47.912;19.044;2023-03-26T14:07:18;16.60;66.60
33761;DHT22;20084;47.912;19.044;2023-03-26T14:15:49;16.20;67.50
33761;DHT22;20084;47.912;19.044;2023-03-26T14:21:12;16.20;67.90
33761;DHT22;20084;47.912;19.044;2023-03-26T14:24:08;16.30;69.50
33761;DHT22;20084;47.912;19.044;2023-03-26T14:38:13;16.40;70.20
33761;DHT22;20084;47.912;19.044;2023-03-26T14:49:38;16.80;69.40
33761;DHT22;20084;47.912;19.044;2023-03-26T14:52:22;16.90;68.40
33761;DHT22;20084;47.912;19.044;2023-03-26T14:54:55;17.00;67.70
33761;DHT22;20084;47.912;19.044;2023-03-26T15:05:39;16.80;67.60
33761;DHT22;20084;47.912;19.044;2023-03-26T15:14:41;16.50;66.30
33761;DHT22;20084;47.912;19.044;2023-03-26T15:45:38;16.00;61.00
33761;DHT22;20084;47.912;19.044;2023-03-26T15:48:30;16.00;61.00
33761;DHT22;20084;47.912;19.044;2023-03-26T15:51:23;16.00;60.30
33761;DHT22;20084;47.912;19.044;2023-03-26T15:54:45;16.00;60.80
33761;DHT22;20084;47.912;19.044;2023-03-26T15:59:53;16.00;58.90
33761;DHT22;20084;47.912;19.044;2023-03-26T16:05:32;16.10;59.20
33761;DHT22;20084;47.912;19.044;2023-03-26T16:18:36;16.00;60.60
33761;DHT22;20084;47.912;19.044;2023-03-26T16:23:54;15.90;60.30
33761;DHT22;20084;47.912;19.044;2023-03-26T16:27:05;15.80;60.80
33761;DHT22;20084;47.912;19.044;2023-03-26T16:29:16;15.70;61.70
33761;DHT22;20084;47.912;19.044;2023-03-26T16:35:00;15.70;61.60
33761;DHT22;20084;47.912;19.044;2023-03-26T16:37:35;15.60;62.30
33761;DHT22;20084;47.912;19.044;2023-03-26T16:45:51;15.50;63.70
33761;DHT22;20084;47.912;19.044;2023-03-26T16:48:34;15.50;64.20
33761;DHT22;20084;47.912;19.044;2023-03-26T16:51:16;15.50;64.60
33761;DHT22;20084;47.912;19.044;2023-03-26T16:54:15;15.50;64.90
33761;DHT22;20084;47.912;19.044;2023-03-26T17:00:04;15.40;65.30
33761;DHT22;20084;47.912;19.044;2023-03-26T17:02:48;15.40;65.10
33761;DHT22;20084;47.912;19.044;2023-03-26T17:05:36;15.40;65.60
33761;DHT22;20084;47.912;19.044;2023-03-26T17:08:54;15.40;65.90
33761;DHT22;20084;47.912;19.044;2023-03-26T17:11:35;15.40;66.20
33761;DHT22;20084;47.912;19.044;2023-03-26T17:17:36;15.40;66.60
33761;DHT22;20084;47.912;19.044;2023-03-26T17:22:52;15.50;66.50
33761;DHT22;20084;47.912;19.044;2023-03-26T17:25:43;15.50;66.60
33761;DHT22;20084;47.912;19.044;2023-03-26T17:31:04;15.40;67.70
33761;DHT22;20084;47.912;19.044;2023-03-26T17:33:34;15.30;67.50
33761;DHT22;20084;47.912;19.044;2023-03-26T17:38:59;15.30;68.00
33761;DHT22;20084;47.912;19.044;2023-03-26T17:42:46;15.30;67.90
33761;DHT22;20084;47.912;19.044;2023-03-26T17:44:51;15.30;68.70
33761;DHT22;20084;47.912;19.044;2023-03-26T17:50:22;15.00;69.60
33761;DHT22;20084;47.912;19.044;2023-03-26T17:53:00;14.90;70.80
33761;DHT22;20084;47.912;19.044;2023-03-26T17:55:30;14.80;70.10
33761;DHT22;20084;47.912;19.044;2023-03-26T17:58:02;14.80;72.20
33761;DHT22;20084;47.912;19.044;2023-03-26T18:00:33;14.60;73.20
33761;DHT22;20084;47.912;19.044;2023-03-26T18:03:05;14.60;72.10
33761;DHT22;20084;47.912;19.044;2023-03-26T18:05:38;14.50;75.60
33761;DHT22;20084;47.912;19.044;2023-03-26T18:16:42;14.30;77.60
33761;DHT22;20084;47.912;19.044;2023-03-26T18:19:16;14.20;75.90
33761;DHT22;20084;47.912;19.044;2023-03-26T18:21:48;14.20;73.50
33761;DHT22;20084;47.912;19.044;2023-03-26T18:24:35;14.30;73.00
33761;DHT22;20084;47.912;19.044;2023-03-26T18:27:12;14.40;73.00
33761;DHT22;20084;47.912;19.044;2023-03-26T18:32:23;14.50;72.40
33761;DHT22;20084;47.912;19.044;2023-03-26T18:34:57;14.50;72.60
33761;DHT22;20084;47.912;19.044;2023-03-26T18:37:30;14.50;72.00
33761;DHT22;20084;47.912;19.044;2023-03-26T18:42:35;14.50;73.50
33761;DHT22;20084;47.912;19.044;2023-03-26T18:45:06;14.50;71.90
33761;DHT22;20084;47.912;19.044;2023-03-26T18:47:33;14.50;71.30
33761;DHT22;20084;47.912;19.044;2023-03-26T18:50:03;14.50;71.50
33761;DHT22;20084;47.912;19.044;2023-03-26T18:52:31;14.50;73.20
33761;DHT22;20084;47.912;19.044;2023-03-26T18:54:58;14.40;76.30
33761;DHT22;20084;47.912;19.044;2023-03-26T18:57:26;14.30;78.00
33761;DHT22;20084;47.912;19.044;2023-03-26T18:59:56;14.20;81.10
33761;DHT22;20084;47.912;19.044;2023-03-26T19:02:33;14.20;82.20
33761;DHT22;20084;47.912;19.044;2023-03-26T19:05:00;14.30;85.80
33761;DHT22;20084;47.912;19.044;2023-03-26T19:07:28;14.30;86.30
33761;DHT22;20084;47.912;19.044;2023-03-26T19:09:55;14.30;87.60
33761;DHT22;20084;47.912;19.044;2023-03-26T19:12:31;14.30;88.00
33761;DHT22;20084;47.912;19.044;2023-03-26T19:15:15;14.30;89.70
33761;DHT22;20084;47.912;19.044;2023-03-26T19:17:47;14.20;90.20
33761;DHT22;20084;47.912;19.044;2023-03-26T19:20:19;14.20;91.00
33761;DHT22;20084;47.912;19.044;2023-03-26T19:22:46;14.10;92.00
33761;DHT22;20084;47.912;19.044;2023-03-26T19:25:29;14.10;92.40
33761;DHT22;20084;47.912;19.044;2023-03-26T19:27:58;14.00;94.10
33761;DHT22;20084;47.912;19.044;2023-03-26T19:32:54;13.50;97.40
33761;DHT22;20084;47.912;19.044;2023-03-26T19:35:22;13.40;99.00
33761;DHT22;20084;47.912;19.044;2023-03-26T19:37:51;13.20;99.90
33761;DHT22;20084;47.912;19.044;2023-03-26T19:40:22;13.20;99.90
33761;DHT22;20084;47.912;19.044;2023-03-26T19:42:56;13.20;99.90
33761;DHT22;20084;47.912;19.044;2023-03-26T19:45:26;13.20;99.90
33761;DHT22;20084;47.912;19.044;2023-03-26T19:47:52;13.20;99.90
33761;DHT22;20084;47.912;19.044;2023-03-26T19:50:31;13.20;99.90
33761;DHT22;20084;47.912;19.044;2023-03-26T19:53:33;13.20;99.90
33761;DHT22;20084;47.912;19.044;2023-03-26T19:56:10;13.20;99.20
33761;DHT22;20084;47.912;19.044;2023-03-26T19:58:38;13.00;99.50
33761;DHT22;20084;47.912;19.044;2023-03-26T20:01:05;13.00;99.60
33761;DHT22;20084;47.912;19.044;2023-03-26T20:03:40;13.10;99.50
33761;DHT22;20084;47.912;19.044;2023-03-26T20:06:15;13.20;99.40
33761;DHT22;20084;47.912;19.044;2023-03-26T20:08:42;13.20;99.90
33761;DHT22;20084;47.912;19.044;2023-03-26T20:11:18;13.20;99.90
33761;DHT22;20084;47.912;19.044;2023-03-26T20:13:45;13.30;99.90
33761;DHT22;20084;47.912;19.044;2023-03-26T20:16:30;13.30;99.90
33761;DHT22;20084;47.912;19.044;2023-03-26T20:18:57;13.30;99.90
33761;DHT22;20084;47.912;19.044;2023-03-26T20:21:27;13.30;99.90
33761;DHT22;20084;47.912;19.044;2023-03-26T20:23:54;13.30;99.90
33761;DHT22;20084;47.912;19.044;2023-03-26T20:26:22;13.30;99.90
33761;DHT22;20084;47.912;19.044;2023-03-26T20:28:48;13.40;99.90
33761;DHT22;20084;47.912;19.044;2023-03-26T20:31:17;13.40;99.90
33761;DHT22;20084;47.912;19.044;2023-03-26T20:33:47;13.30;99.90
33761;DHT22;20084;47.912;19.044;2023-03-26T20:36:14;13.30;99.90
33761;DHT22;20084;47.912;19.044;2023-03-26T20:38:43;13.10;99.90
33761;DHT22;20084;47.912;19.044;2023-03-26T20:41:15;13.00;99.90
33761;DHT22;20084;47.912;19.044;2023-03-26T20:43:42;12.90;99.90
33761;DHT22;20084;47.912;19.044;2023-03-26T20:46:19;12.80;99.90
33761;DHT22;20084;47.912;19.044;2023-03-26T20:48:45;12.70;99.90
33761;DHT22;20084;47.912;19.044;2023-03-26T20:51:12;12.60;99.90
33761;DHT22;20084;47.912;19.044;2023-03-26T20:53:40;12.50;99.90
33761;DHT22;20084;47.912;19.044;2023-03-26T20:56:14;12.50;99.90
33761;DHT22;20084;47.912;19.044;2023-03-26T20:58:42;12.50;99.90
33761;DHT22;20084;47.912;19.044;2023-03-26T21:01:09;12.50;99.90
33761;DHT22;20084;47.912;19.044;2023-03-26T21:03:36;12.40;99.90
33761;DHT22;20084;47.912;19.044;2023-03-26T21:06:04;12.40;99.90
33761;DHT22;20084;47.912;19.044;2023-03-26T21:08:30;12.30;99.90
33761;DHT22;20084;47.912;19.044;2023-03-26T21:11:00;12.10;99.90
33761;DHT22;20084;47.912;19.044;2023-03-26T21:13:42;12.10;99.90
33761;DHT22;20084;47.912;19.044;2023-03-26T21:16:10;12.10;99.90
33761;DHT22;20084;47.912;19.044;2023-03-26T21:18:36;12.00;99.90
33761;DHT22;20084;47.912;19.044;2023-03-26T21:24:06;12.10;99.90
33761;DHT22;20084;47.912;19.044;2023-03-26T21:29:31;11.90;99.90
33761;DHT22;20084;47.912;19.044;2023-03-26T21:31:57;11.90;99.90
33761;DHT22;20084;47.912;19.044;2023-03-26T21:34:23;11.90;99.90
33761;DHT22;20084;47.912;19.044;2023-03-26T21:36:49;11.90;99.90
33761;DHT22;20084;47.912;19.044;2023-03-26T21:39:15;12.00;99.90
33761;DHT22;20084;47.912;19.044;2023-03-26T21:41:45;12.10;99.90